Yaupon Beach, North Carolina
Current Conditions -  °F | °C
As of 1:35 PM on Sunday 25 Jan 2015 (Local Time) from KSUT Reporting Station
Clear Clear  
Wind Chill: 51°   Ceiling: Unl
Heat Index: 51°   Visibility: 10mi
Dew Point: 32°   Wind: 7mph
Humidity: 48%   Direction: 190°S
Pressure: 29.94"   Gusts: NA
Location:  33.9216°N, 78.1244°W
Report Text: KSUT 251835Z AUTO 19006KT 10SM CLR 11/00 A2994 RMK AO2 T01080001
Loading
Personal Weather Stations






























Interactive Weather Map New forecast layout! Learn more

10-Day Weather Forecast

Advertisements
Track Severe Weather on mobile